Time;durP1;ratioP1;P1;durP2;ratioP2;P2;SDS_P1;SDS_P2;PMS_P1;PMS_P2;Temp;Humidity;BMP_temperature;BMP_pressure;BME280_temperature;BME280_humidity;BME280_pressure;Samples;Min_cycle;Max_cycle;Signal;HPM_P1;HPM_P2
2022/11/17 00:01:38;;;;;;;1999.90;999.90;;;;;;;6.32;100.00;99405.53;5079734;28;20124;-75
2022/11/17 00:04:03;;;;;;;1999.90;999.90;;;;;;;6.31;100.00;99401.16;5082335;28;20113;-75
2022/11/17 00:06:28;;;;;;;1999.90;999.90;;;;;;;6.32;100.00;99395.06;5079948;28;20379;-75
2022/11/17 00:08:54;;;;;;;1999.90;999.90;;;;;;;6.34;100.00;99399.41;5083491;28;20483;-75
2022/11/17 00:11:19;;;;;;;1999.90;999.90;;;;;;;6.33;100.00;99402.03;5080816;28;20841;-75
2022/11/17 00:16:28;;;;;;;1999.90;999.90;;;;;;;6.26;100.00;99389.84;5076324;28;20151;-75
2022/11/17 00:21:38;;;;;;;1999.90;999.90;;;;;;;6.18;100.00;99405.59;5076739;28;20044;-75
2022/11/17 00:24:03;;;;;;;1999.90;999.90;;;;;;;6.20;100.00;99400.38;5078892;28;20047;-75
2022/11/17 00:26:31;;;;;;;1999.90;999.90;;;;;;;6.17;100.00;99397.78;5080926;28;20638;-75
2022/11/17 00:29:03;;;;;;;1999.90;999.90;;;;;;;6.18;100.00;99391.66;5075545;28;20040;-75
2022/11/17 00:34:17;;;;;;;1999.90;999.90;;;;;;;6.07;100.00;99383.84;5077488;28;20100;-75
2022/11/17 00:36:46;;;;;;;1999.90;999.90;;;;;;;5.99;100.00;99381.28;5079397;28;20029;-75
2022/11/17 00:39:13;;;;;;;1999.90;999.90;;;;;;;6.02;100.00;99381.25;5083647;28;20700;-75
2022/11/17 00:41:38;;;;;;;1999.90;999.90;;;;;;;6.04;100.00;99392.59;5079636;28;20049;-75
2022/11/17 00:44:04;;;;;;;1999.90;999.90;;;;;;;6.02;100.00;99386.50;5085651;28;20482;-74
2022/11/17 00:46:30;;;;;;;1999.90;999.90;;;;;;;5.97;100.00;99390.03;5084423;28;20051;-74
2022/11/17 00:48:56;;;;;;;1999.90;999.90;;;;;;;5.91;100.00;99380.44;5084518;28;20044;-75
2022/11/17 00:51:21;;;;;;;1999.90;999.90;;;;;;;5.88;100.00;99370.84;5067749;28;20071;-75
2022/11/17 00:53:48;;;;;;;1999.90;999.90;;;;;;;5.83;100.00;99374.38;5083083;28;20025;-75
2022/11/17 00:56:13;;;;;;;1999.90;999.90;;;;;;;5.83;100.00;99371.75;5079077;28;20123;-75
2022/11/17 00:58:39;;;;;;;1999.90;999.90;;;;;;;5.90;100.00;99376.09;5085863;28;20120;-75
2022/11/17 01:01:04;;;;;;;1999.90;999.90;;;;;;;5.91;100.00;99364.72;5077183;28;20075;-74
2022/11/17 01:03:30;;;;;;;1999.90;999.90;;;;;;;5.88;100.00;99367.34;5083265;28;20036;-75
2022/11/17 01:06:02;;;;;;;1999.90;999.90;;;;;;;5.90;100.00;99357.75;5083843;28;20032;-75
2022/11/17 01:08:27;;;;;;;1999.90;999.90;;;;;;;5.84;100.00;99366.53;5079202;28;20036;-75
2022/11/17 01:10:52;;;;;;;1999.90;999.90;;;;;;;5.83;100.00;99371.75;5081913;28;20398;-75
2022/11/17 01:13:18;;;;;;;1999.90;999.90;;;;;;;5.84;100.00;99371.75;5083872;28;20418;-75
2022/11/17 01:15:43;;;;;;;1999.90;999.90;;;;;;;5.88;100.00;99367.34;5084084;28;20097;-74
2022/11/17 01:18:09;;;;;;;1999.90;999.90;;;;;;;5.88;100.00;99367.34;5085159;28;20125;-74
2022/11/17 01:20:35;;;;;;;1999.90;999.90;;;;;;;5.89;100.00;99359.50;5082934;28;20043;-75
2022/11/17 01:23:00;;;;;;;1999.90;999.90;;;;;;;5.90;100.00;99358.63;5085659;28;20044;-75
2022/11/17 01:25:25;;;;;;;1999.90;999.90;;;;;;;5.87;100.00;99365.63;5082607;28;20040;-75
2022/11/17 01:27:51;;;;;;;1999.90;999.90;;;;;;;5.84;100.00;99358.66;5084746;28;20081;-75
2022/11/17 01:30:17;;;;;;;1999.90;999.90;;;;;;;5.85;100.00;99362.16;5083938;28;20028;-75
2022/11/17 01:32:42;;;;;;;1999.90;999.90;;;;;;;5.81;100.00;99355.19;5083377;28;20584;-75
2022/11/17 01:35:07;;;;;;;1999.90;999.90;;;;;;;5.79;100.00;99351.69;5062940;28;20056;-74
2022/11/17 01:37:33;;;;;;;1999.90;999.90;;;;;;;5.77;100.00;99358.72;5081449;28;20028;-75
2022/11/17 01:39:58;;;;;;;1999.90;999.90;;;;;;;5.70;100.00;99350.00;5067661;28;20046;-75
2022/11/17 01:42:25;;;;;;;1999.90;999.90;;;;;;;5.75;100.00;99349.97;5082626;28;20445;-75
2022/11/17 01:44:59;;;;;;;1999.90;999.90;;;;;;;5.78;100.00;99355.19;5083885;28;20067;-75
2022/11/17 01:47:40;;;;;;;1999.90;999.90;;;;;;;5.85;100.00;99349.06;5085150;28;20083;-74
2022/11/17 01:50:35;;;;;;;1999.90;999.90;;;;;;;5.76;100.00;99341.25;5078804;28;20150;-74
2022/11/17 01:53:07;;;;;;;1999.90;999.90;;;;;;;5.75;100.00;99343.00;5082571;28;20044;-75
2022/11/17 01:55:36;;;;;;;1999.90;999.90;;;;;;;5.76;100.00;99339.47;5061380;28;20047;-75
2022/11/17 01:58:10;;;;;;;1999.90;999.90;;;;;;;5.75;100.00;99340.38;5083701;28;20035;-75
2022/11/17 02:00:35;;;;;;;1999.90;999.90;;;;;;;5.67;100.00;99337.78;5080439;28;20471;-74
2022/11/17 02:03:01;;;;;;;1999.90;999.90;;;;;;;5.70;100.00;99339.53;5078453;28;20039;-75
2022/11/17 02:05:31;;;;;;;1999.90;999.90;;;;;;;5.71;100.00;99329.06;5084269;28;20032;-74
2022/11/17 02:08:00;;;;;;;1999.90;999.90;;;;;;;5.74;100.00;99322.94;5081324;28;20036;-75
2022/11/17 02:10:29;;;;;;;1999.90;999.90;;;;;;;5.71;100.00;99317.69;5084773;28;20136;-75
2022/11/17 02:12:54;;;;;;;1999.90;999.90;;;;;;;5.64;100.00;99322.13;5061880;28;20036;-75
2022/11/17 02:15:21;;;;;;;1999.90;999.90;;;;;;;5.61;100.00;99322.13;5077492;28;20505;-74
2022/11/17 02:17:47;;;;;;;1999.90;999.90;;;;;;;5.60;100.00;99323.00;5083392;28;20028;-75
2022/11/17 02:20:17;;;;;;;1999.90;999.90;;;;;;;5.62;100.00;99318.63;5083880;28;20040;-75
2022/11/17 02:23:15;;;;;;;1999.90;999.90;;;;;;;5.65;100.00;99329.06;5081287;28;20039;-75
2022/11/17 02:26:05;;;;;;;1999.90;999.90;;;;;;;5.63;100.00;99325.63;5078746;28;20040;-75
2022/11/17 02:28:33;;;;;;;1999.90;999.90;;;;;;;5.60;100.00;99316.91;5079005;28;20039;-75
2022/11/17 02:31:01;;;;;;;1999.90;999.90;;;;;;;5.59;100.00;99321.25;5082857;28;20398;-75
2022/11/17 02:33:55;;;;;;;1999.90;999.90;;;;;;;5.55;100.00;99319.53;5084068;28;20640;-75
2022/11/17 02:36:35;;;;;;;1999.90;999.90;;;;;;;5.56;100.00;99323.91;5080030;28;20032;-75
2022/11/17 02:39:25;;;;;;;1999.90;999.90;;;;;;;5.58;100.00;99322.16;5082358;28;20028;-75
2022/11/17 02:41:59;;;;;;;1999.90;999.90;;;;;;;5.52;100.00;99316.94;5081480;28;20045;-75
2022/11/17 02:44:35;;;;;;;1999.90;999.90;;;;;;;5.44;100.00;99316.97;5077171;28;20516;-75
2022/11/17 02:47:06;;;;;;;1999.90;999.90;;;;;;;5.46;100.00;99319.59;5081132;28;20055;-74
2022/11/17 02:49:38;;;;;;;1999.90;999.90;;;;;;;5.48;100.00;99312.63;5080903;28;20052;-75
2022/11/17 02:52:06;;;;;;;1999.90;999.90;;;;;;;5.50;100.00;99316.06;5083095;28;20028;-75
2022/11/17 02:54:32;;;;;;;1999.90;999.90;;;;;;;5.44;100.00;99316.09;5082939;28;20074;-75
2022/11/17 02:56:58;;;;;;;1999.90;999.90;;;;;;;5.49;100.00;99314.34;5081174;28;20064;-75
2022/11/17 02:59:36;;;;;;;1999.90;999.90;;;;;;;5.48;100.00;99307.38;5083980;28;20024;-74
2022/11/17 03:02:18;;;;;;;1999.90;999.90;;;;;;;5.44;100.00;99309.13;5082428;28;20051;-75
2022/11/17 03:05:08;;;;;;;;;;;;;;;5.41;100.00;99316.13;5071574;28;20063;-75
2022/11/17 03:08:02;;;;;;;1999.90;999.90;;;;;;;5.45;100.00;99321.34;5079727;28;20401;-74
2022/11/17 03:10:46;;;;;;;;;;;;;;;5.40;100.00;99310.03;5080228;28;20452;-74
2022/11/17 03:13:24;;;;;;;1999.90;999.90;;;;;;;5.46;100.00;99314.34;5078168;28;19919;-74
2022/11/17 03:15:58;;;;;;;1999.90;999.90;;;;;;;5.45;100.00;99315.25;5078954;28;20084;-75
2022/11/17 03:18:33;;;;;;;1999.90;999.90;;;;;;;5.43;100.00;99320.47;5081218;28;20114;-75
2022/11/17 03:21:17;;;;;;;1999.90;999.90;;;;;;;5.47;100.00;99313.47;5079454;28;20044;-75
2022/11/17 03:23:49;;;;;;;1999.90;999.90;;;;;;;5.54;100.00;99312.56;5078437;28;20581;-75
2022/11/17 03:26:19;;;;;;;;;;;;;;;5.57;100.00;99315.16;5077238;28;20093;-74
2022/11/17 03:28:45;;;;;;;1999.90;999.90;;;;;;;5.54;100.00;99312.56;5082445;28;19912;-75
2022/11/17 03:31:12;;;;;;;1999.90;999.90;;;;;;;5.55;100.00;99311.69;5081916;28;20054;-74
2022/11/17 03:33:40;;;;;;;1999.90;999.90;;;;;;;5.53;100.00;99303.00;5062824;28;20035;-75
2022/11/17 03:36:12;;;;;;;1999.90;999.90;;;;;;;5.50;100.00;99302.97;5080458;28;20040;-75
2022/11/17 03:38:43;;;;;;;1999.90;999.90;;;;;;;5.50;100.00;99297.75;5081057;28;20054;-74
2022/11/17 03:41:12;;;;;;;1999.90;999.90;;;;;;;5.51;100.00;99296.88;5082258;28;20032;-75
2022/11/17 03:43:39;;;;;;;1999.90;999.90;;;;;;;5.49;100.00;99302.13;5079580;28;20043;-74
2022/11/17 03:46:09;;;;;;;1999.90;999.90;;;;;;;5.54;100.00;99302.09;5082541;28;20032;-75
2022/11/17 03:48:57;;;;;;;1999.90;999.90;;;;;;;5.58;100.00;99300.31;5083211;28;20602;-75
2022/11/17 03:51:25;;;;;;;1999.90;999.90;;;;;;;5.49;100.00;99291.66;5078892;28;20419;-75
2022/11/17 03:53:53;;;;;;;1999.90;999.90;;;;;;;5.47;100.00;99297.78;5080465;28;20033;-75
2022/11/17 03:56:34;;;;;;;1999.90;999.90;;;;;;;5.48;100.00;99292.53;5082771;28;20070;-75
2022/11/17 03:59:12;;;;;;;1999.90;999.90;;;;;;;5.46;100.00;99290.81;5081962;28;20051;-75
2022/11/17 04:01:38;;;;;;;1999.90;999.90;;;;;;;5.45;100.00;99295.19;5077313;28;20032;-74
2022/11/17 04:04:03;;;;;;;1999.90;999.90;;;;;;;5.49;100.00;99291.66;5081468;28;20038;-75
2022/11/17 04:06:28;;;;;;;1999.90;999.90;;;;;;;5.51;100.00;99296.88;5078841;28;20043;-75
2022/11/17 04:08:54;;;;;;;1999.90;999.90;;;;;;;5.49;100.00;99296.03;5079359;28;20091;-74
2022/11/17 04:16:47;;;;;;;1999.90;999.90;;;;;;;5.35;100.00;99292.63;5078832;28;20040;-75
2022/11/17 04:19:12;;;;;;;1999.90;999.90;;;;;;;5.38;100.00;99288.22;5080708;28;20509;-75
2022/11/17 04:21:37;;;;;;;1999.90;999.90;;;;;;;5.38;100.00;99290.84;5064362;28;20067;-75
2022/11/17 04:24:03;;;;;;;1999.90;999.90;;;;;;;5.37;100.00;99285.59;5061607;28;20041;-77
2022/11/17 04:29:12;;;;;;;1999.90;999.90;;;;;;;5.37;100.00;99277.75;5082641;28;20110;-76
2022/11/17 04:31:38;;;;;;;1999.90;999.90;;;;;;;5.39;100.00;99273.41;5075952;28;20132;-77
2022/11/17 04:34:04;;;;;;;1999.90;999.90;;;;;;;5.41;100.00;99274.25;5058298;28;20046;-77
2022/11/17 04:36:34;;;;;;;1999.90;999.90;;;;;;;5.41;100.00;99269.03;5080013;28;20032;-77
2022/11/17 04:39:00;;;;;;;1999.90;999.90;;;;;;;5.39;100.00;99278.63;5080322;28;20047;-77
2022/11/17 04:44:15;;;;;;;1999.90;999.90;;;;;;;5.40;100.00;99272.53;5074711;28;20111;-77
2022/11/17 04:46:43;;;;;;;1999.90;999.90;;;;;;;5.39;100.00;99262.94;5078588;28;20113;-77
2022/11/17 04:49:09;;;;;;;1999.90;999.90;;;;;;;5.34;100.00;99265.56;5081732;28;20039;-77
2022/11/17 04:51:35;;;;;;;1999.90;999.90;;;;;;;5.36;100.00;99253.34;5080616;28;20036;-77
2022/11/17 04:54:01;;;;;;;1999.90;999.90;;;;;;;5.37;100.00;99255.09;5074317;28;20499;-77
2022/11/17 04:56:28;;;;;;;1999.90;999.90;;;;;;;5.39;100.00;99257.69;5081852;28;20047;-77
2022/11/17 04:58:54;;;;;;;1999.90;999.90;;;;;;;5.37;100.00;99249.88;5061172;28;20103;-76
2022/11/17 05:01:21;;;;;;;1999.90;999.90;;;;;;;5.38;100.00;99253.34;5078739;28;20132;-77
2022/11/17 05:03:47;;;;;;;1999.90;999.90;;;;;;;5.39;100.00;99250.72;5078134;28;20032;-77
2022/11/17 05:06:16;;;;;;;1999.90;999.90;;;;;;;5.41;100.00;99250.72;5077637;28;20048;-77
2022/11/17 05:08:42;;;;;;;1999.90;999.90;;;;;;;5.38;100.00;99258.59;5081977;28;20035;-76
2022/11/17 05:13:53;;;;;;;1999.90;999.90;;;;;;;5.39;100.00;99258.56;5079261;28;20040;-77
2022/11/17 05:19:05;;;;;;;1999.90;999.90;;;;;;;5.40;100.00;99246.38;5077301;28;20490;-77
2022/11/17 05:21:31;;;;;;;1999.90;999.90;;;;;;;5.41;100.00;99240.25;5076917;28;20035;-76
2022/11/17 05:23:57;;;;;;;1999.90;999.90;;;;;;;5.40;100.00;99230.66;5076938;28;20532;-76
2022/11/17 05:26:25;;;;;;;1999.90;999.90;;;;;;;5.39;100.00;99235.00;5072661;28;20494;-76
2022/11/17 05:28:51;;;;;;;1999.90;999.90;;;;;;;5.37;100.00;99228.03;5077018;28;20032;-76
2022/11/17 05:31:17;;;;;;;1999.90;999.90;;;;;;;5.32;100.00;99241.19;5070407;28;20505;-77
2022/11/17 05:33:42;;;;;;;1999.90;999.90;;;;;;;5.34;100.00;99238.53;5085383;28;20028;-76
2022/11/17 05:36:09;;;;;;;1999.90;999.90;;;;;;;5.39;100.00;99242.00;5081408;28;20033;-76
2022/11/17 05:38:34;;;;;;;1999.90;999.90;;;;;;;5.38;100.00;99246.38;5084854;28;20132;-76
2022/11/17 05:41:00;;;;;;;1999.90;999.90;;;;;;;5.46;100.00;99238.47;5083842;28;20566;-76
2022/11/17 05:43:25;;;;;;;1999.90;999.90;;;;;;;5.45;100.00;99240.22;5076074;28;20029;-76
2022/11/17 05:45:50;;;;;;;1999.90;999.90;;;;;;;5.49;100.00;99230.59;5071222;28;20510;-76
2022/11/17 05:48:16;;;;;;;1999.90;999.90;;;;;;;5.44;100.00;99232.38;5078978;28;20047;-76
2022/11/17 05:50:41;;;;;;;1999.90;999.90;;;;;;;5.46;100.00;99235.84;5079303;28;20506;-76
2022/11/17 05:53:07;;;;;;;1999.90;999.90;;;;;;;5.47;100.00;99234.97;5082202;28;20037;-76
2022/11/17 05:55:32;;;;;;;1999.90;999.90;;;;;;;5.46;100.00;99228.88;5074554;28;20032;-77
2022/11/17 05:58:03;;;;;;;1999.90;999.90;;;;;;;5.47;100.00;99214.88;5081293;28;20045;-76
2022/11/17 06:00:30;;;;;;;1999.90;999.90;;;;;;;5.51;100.00;99213.16;5067190;28;20115;-76
2022/11/17 06:03:02;;;;;;;1999.90;999.90;;;;;;;5.52;100.00;99216.63;5078029;28;20040;-76
2022/11/17 06:05:28;;;;;;;1999.90;999.90;;;;;;;5.50;100.00;99224.47;5080909;28;20029;-76
2022/11/17 06:07:54;;;;;;;1999.90;999.90;;;;;;;5.51;100.00;99217.50;5080100;28;20394;-76
2022/11/17 06:10:19;;;;;;;1999.90;999.90;;;;;;;5.51;100.00;99221.00;5081181;28;20080;-76
2022/11/17 06:12:45;;;;;;;1999.90;999.90;;;;;;;5.54;100.00;99215.72;5084937;28;20039;-76
2022/11/17 06:15:10;;;;;;;1999.90;999.90;;;;;;;5.54;100.00;99220.97;5081952;28;20028;-76
2022/11/17 06:18:08;;;;;;;1999.90;999.90;;;;;;;5.53;100.00;99224.47;5083690;28;20066;-76
2022/11/17 06:20:40;;;;;;;1999.90;999.90;;;;;;;5.52;100.00;99227.94;5079025;28;20478;-76
2022/11/17 06:23:07;;;;;;;1999.90;999.90;;;;;;;5.53;100.00;99224.47;5084875;28;20032;-76
2022/11/17 06:25:35;;;;;;;1999.90;999.90;;;;;;;5.53;100.00;99215.72;5081888;28;20025;-76
2022/11/17 06:28:03;;;;;;;1999.90;999.90;;;;;;;5.60;100.00;99231.38;5083274;28;20048;-76
2022/11/17 06:30:29;;;;;;;1999.90;999.90;;;;;;;5.64;100.00;99230.50;5073735;28;20028;-76
2022/11/17 06:32:56;;;;;;;1999.90;999.90;;;;;;;5.72;100.00;99235.69;5083110;28;20037;-76
2022/11/17 06:35:22;;;;;;;1999.90;999.90;;;;;;;5.70;100.00;99233.06;5075355;28;20031;-76
2022/11/17 06:37:47;;;;;;;1999.90;999.90;;;;;;;5.69;100.00;99230.47;5083534;28;20031;-76
2022/11/17 06:40:13;;;;;;;1999.90;999.90;;;;;;;5.68;100.00;99234.81;5082151;28;20107;-76
2022/11/17 06:45:23;;;;;;;1999.90;999.90;;;;;;;5.71;100.00;99231.31;5079375;28;20044;-76
2022/11/17 06:47:48;;;;;;;1999.90;999.90;;;;;;;5.68;100.00;99237.44;5082299;28;20032;-76
2022/11/17 06:50:13;;;;;;;1999.90;999.90;;;;;;;5.66;100.00;99231.38;5079054;28;20035;-76
2022/11/17 06:52:39;;;;;;;1999.90;999.90;;;;;;;5.59;100.00;99234.91;5081544;28;20056;-76
2022/11/17 06:55:05;;;;;;;1999.90;999.90;;;;;;;5.59;100.00;99224.44;5059292;28;20109;-76
2022/11/17 06:57:30;;;;;;;1999.90;999.90;;;;;;;5.52;100.00;99222.72;5082367;28;20040;-75
2022/11/17 06:59:56;;;;;;;1999.90;999.90;;;;;;;5.57;100.00;99209.59;5066205;28;20452;-76
2022/11/17 07:02:21;;;;;;;1999.90;999.90;;;;;;;5.60;100.00;99205.22;5082862;28;20072;-76
2022/11/17 07:04:46;;;;;;;1999.90;999.90;;;;;;;5.59;100.00;99213.97;5082147;28;20039;-76
2022/11/17 07:07:12;;;;;;;1999.90;999.90;;;;;;;5.61;100.00;99212.19;5079607;28;20036;-74
2022/11/17 07:09:37;;;;;;;1999.90;999.90;;;;;;;5.63;100.00;99220.91;5084183;28;20097;-74
2022/11/17 07:12:03;;;;;;;1999.90;999.90;;;;;;;5.67;100.00;99213.91;5080400;28;20048;-74
2022/11/17 07:14:28;;;;;;;1999.90;999.90;;;;;;;5.66;100.00;99207.81;5083021;28;20032;-73
2022/11/17 07:16:53;;;;;;;1999.90;999.90;;;;;;;5.62;100.00;99207.84;5079757;28;20048;-74
2022/11/17 07:19:19;;;;;;;1999.90;999.90;;;;;;;5.66;100.00;99201.72;5083179;28;20052;-74
2022/11/17 07:21:44;;;;;;;1999.90;999.90;;;;;;;5.65;100.00;99198.19;5081651;28;20028;-74
2022/11/17 07:24:09;;;;;;;1999.90;999.90;;;;;;;5.68;100.00;99199.91;5082933;28;20044;-74
2022/11/17 07:26:35;;;;;;;1999.90;999.90;;;;;;;5.64;100.00;99188.63;5079901;28;20075;-74
2022/11/17 07:29:00;;;;;;;1999.90;999.90;;;;;;;5.64;100.00;99186.00;5083202;28;20486;-74
2022/11/17 07:31:25;;;;;;;1999.90;999.90;;;;;;;5.69;100.00;99181.59;5080976;28;20033;-74
2022/11/17 07:33:52;;;;;;;1999.90;999.90;;;;;;;5.70;100.00;99179.84;5081647;28;20028;-74
2022/11/17 07:36:17;;;;;;;1999.90;999.90;;;;;;;5.69;100.00;99173.75;5079193;28;20632;-74
2022/11/17 07:38:43;;;;;;;1999.90;999.90;;;;;;;5.72;100.00;99178.09;5082872;28;20047;-73
2022/11/17 07:41:11;;;;;;;1999.90;999.90;;;;;;;5.77;100.00;99185.91;5079827;28;20036;-74
2022/11/17 07:43:36;;;;;;;1999.90;999.90;;;;;;;5.80;100.00;99188.50;5082206;28;20044;-73
2022/11/17 07:46:06;;;;;;;1999.90;999.90;;;;;;;5.75;100.00;99187.66;5080372;28;20044;-74
2022/11/17 07:48:32;;;;;;;1999.90;999.90;;;;;;;5.78;100.00;99193.72;5080539;28;20422;-74
2022/11/17 07:50:58;;;;;;;1999.90;999.90;;;;;;;5.78;100.00;99192.88;5077552;28;20028;-74
2022/11/17 07:53:23;;;;;;;1999.90;999.90;;;;;;;5.81;100.00;99192.84;5079449;28;20036;-74
2022/11/17 07:55:49;;;;;;;1999.90;999.90;;;;;;;5.88;100.00;99189.31;5078820;28;20108;-74
2022/11/17 07:58:14;;;;;;;1999.90;999.90;;;;;;;5.88;100.00;99187.53;5075644;28;20127;-74
2022/11/17 08:00:40;;;;;;;1999.90;999.90;;;;;;;5.88;100.00;99173.59;5077556;28;20121;-74
2022/11/17 08:03:05;;;;;;;1999.90;999.90;;;;;;;5.90;100.00;99182.31;5080704;28;20067;-74
2022/11/17 08:05:34;;;;;;;1999.90;999.90;;;;;;;5.97;100.00;99188.38;5081771;28;20066;-74
2022/11/17 08:07:59;;;;;;;1999.90;999.90;;;;;;;6.02;100.00;99176.97;5076778;28;20036;-74
2022/11/17 08:10:26;;;;;;;1999.90;999.90;;;;;;;6.10;99.58;99175.16;5078235;28;20090;-74
2022/11/17 08:12:52;;;;;;;1999.90;999.90;;;;;;;6.16;99.13;99174.25;5082403;28;20040;-74
2022/11/17 08:15:17;;;;;;;1999.90;999.90;;;;;;;6.17;98.62;99175.09;5081137;28;20028;-74
2022/11/17 08:17:43;;;;;;;1999.90;999.90;;;;;;;6.25;98.79;99168.03;5079658;28;20047;-74
2022/11/17 08:20:11;;;;;;;1999.90;999.90;;;;;;;6.27;97.97;99171.50;5078188;28;20028;-74
2022/11/17 08:22:37;;;;;;;1999.90;999.90;;;;;;;6.34;97.86;99171.44;5074417;28;20028;-73
2022/11/17 08:25:04;;;;;;;1999.90;999.90;;;;;;;6.47;97.04;99169.53;5022793;28;20466;-74
2022/11/17 08:27:29;;;;;;;1999.90;999.90;;;;;;;6.56;97.04;99177.28;5059745;28;20066;-74
2022/11/17 08:29:54;;;;;;;1999.90;999.90;;;;;;;6.65;96.57;99183.31;5078655;28;20059;-74
2022/11/17 08:32:21;;;;;;;1999.90;999.90;;;;;;;6.68;96.05;99180.63;5079382;28;20515;-74
2022/11/17 08:34:46;;;;;;;1999.90;999.90;;;;;;;6.64;95.44;99186.81;5082286;28;20127;-74
2022/11/17 08:37:11;;;;;;;1999.90;999.90;;;;;;;6.65;95.20;99189.41;5074811;28;20406;-74
2022/11/17 08:39:37;;;;;;;1999.90;999.90;;;;;;;6.68;95.01;99202.50;5087538;28;20028;-74
2022/11/17 08:42:02;;;;;;;1999.90;999.90;;;;;;;6.69;94.70;99196.38;5051976;28;20048;-74
2022/11/17 08:44:28;;;;;;;1999.90;999.90;;;;;;;6.69;94.66;99198.13;5081413;28;20081;-74
2022/11/17 08:46:53;;;;;;;1999.90;999.90;;;;;;;6.65;94.26;99209.53;5079943;28;20036;-74
2022/11/17 08:49:19;;;;;;;1999.90;999.90;;;;;;;6.53;94.62;99200.91;5064725;28;20540;-74
2022/11/17 08:51:44;;;;;;;1999.90;999.90;;;;;;;6.67;95.09;99203.38;5073809;28;20044;-74
2022/11/17 08:54:11;;;;;;;1999.90;999.90;;;;;;;6.72;93.84;99211.19;5079880;28;20509;-74
2022/11/17 08:56:37;;;;;;;1999.90;999.90;;;;;;;6.71;93.37;99201.59;5082430;28;20039;-74
2022/11/17 08:59:03;;;;;;;1999.90;999.90;;;;;;;6.83;94.33;99198.81;5084246;28;20036;-74
2022/11/17 09:01:28;;;;;;;1999.90;999.90;;;;;;;6.95;93.63;99201.28;5083809;28;20038;-74
2022/11/17 09:03:53;;;;;;;1999.90;999.90;;;;;;;7.05;93.43;99195.91;5085757;28;20122;-74
2022/11/17 09:06:19;;;;;;;1999.90;999.90;;;;;;;7.17;92.90;99195.75;5082323;28;20433;-74
2022/11/17 09:08:44;;;;;;;1999.90;999.90;;;;;;;7.24;92.30;99190.41;5085951;28;20031;-74
2022/11/17 09:11:10;;;;;;;1999.90;999.90;;;;;;;7.32;91.57;99198.16;5083693;28;20072;-74
2022/11/17 09:13:36;;;;;;;1999.90;999.90;;;;;;;7.34;91.73;99196.41;5084363;28;20078;-74
2022/11/17 09:16:06;;;;;;;1999.90;999.90;;;;;;;7.45;91.31;99185.72;5085008;28;20040;-74
2022/11/17 09:18:32;;;;;;;1999.90;999.90;;;;;;;7.51;90.85;99183.00;5084410;28;20094;-74
2022/11/17 09:21:03;;;;;;;1999.90;999.90;;;;;;;7.54;90.55;99177.69;5068786;28;20455;-74
2022/11/17 09:23:30;;;;;;;1999.90;999.90;;;;;;;7.47;89.89;99181.34;5067146;28;20109;-73
2022/11/17 09:25:56;;;;;;;1999.90;999.90;;;;;;;7.56;89.81;99180.31;5084495;28;20495;-74
2022/11/17 09:28:26;;;;;;;1999.90;999.90;;;;;;;7.62;89.15;99186.34;5081647;28;20044;-74
2022/11/17 09:30:52;;;;;;;1999.90;999.90;;;;;;;7.57;89.24;99197.78;5076413;28;20406;-74
2022/11/17 09:33:18;;;;;;;1999.90;999.90;;;;;;;7.62;89.04;99190.72;5083152;28;20510;-74
2022/11/17 09:35:44;;;;;;;1999.90;999.90;;;;;;;7.72;88.89;99194.06;5083377;28;20036;-74
2022/11/17 09:38:09;;;;;;;1999.90;999.90;;;;;;;7.74;88.80;99190.53;5081479;28;20040;-74
2022/11/17 09:40:37;;;;;;;1999.90;999.90;;;;;;;7.87;88.61;99191.19;5067139;28;20040;-74
2022/11/17 09:43:08;;;;;;;1999.90;999.90;;;;;;;7.97;88.49;99181.41;5078378;28;20040;-74
2022/11/17 09:45:37;;;;;;;1999.90;999.90;;;;;;;7.92;87.57;99172.75;5084901;28;20043;-74
2022/11/17 09:48:13;;;;;;;1999.90;999.90;;;;;;;7.95;87.97;99172.69;5077024;28;20050;-74
2022/11/17 09:50:39;;;;;;;1999.90;999.90;;;;;;;7.95;87.54;99172.69;5080605;28;20482;-74
2022/11/17 09:53:24;;;;;;;1999.90;999.90;;;;;;;7.95;87.44;99177.94;5083375;28;20043;-74
2022/11/17 09:56:01;;;;;;;1999.90;999.90;;;;;;;7.81;87.41;99171.16;5049720;28;20115;-73
2022/11/17 09:58:38;;;;;;;1999.90;999.90;;;;;;;7.63;87.37;99163.59;5082044;28;20161;-74
2022/11/17 10:01:04;;;;;;;1999.90;999.90;;;;;;;7.69;87.80;99166.09;5080543;28;20036;-74
2022/11/17 10:03:32;;;;;;;1999.90;999.90;;;;;;;7.68;87.22;99167.00;5082982;28;20419;-74
2022/11/17 10:06:00;;;;;;;1999.90;999.90;;;;;;;7.68;86.69;99169.63;5082735;28;20024;-74
2022/11/17 10:08:36;;;;;;;1999.90;999.90;;;;;;;7.78;87.30;99163.34;5071137;28;20028;-73
2022/11/17 10:11:30;;;;;;;1999.90;999.90;;;;;;;7.85;87.13;99171.97;5081496;28;20546;-74
2022/11/17 10:13:48;;;;;;;1999.90;999.90;;;;;;;7.87;86.18;99163.16;5073994;28;20095;-74
2022/11/17 10:16:14;;;;;;;1999.90;999.90;;;;;;;7.85;85.35;99161.47;5074551;28;20110;-74
2022/11/17 10:18:39;;;;;;;1999.90;999.90;;;;;;;7.85;85.36;99157.06;5084282;28;20057;-74
2022/11/17 10:21:07;;;;;;;1999.90;999.90;;;;;;;7.81;85.28;99160.66;5081448;28;20039;-74
2022/11/17 10:23:42;;;;;;;1999.90;999.90;;;;;;;7.85;86.27;99151.81;5081367;28;20035;-74
2022/11/17 10:26:11;;;;;;;1999.90;999.90;;;;;;;7.93;85.70;99153.44;5079576;28;20078;-74
2022/11/17 10:28:36;;;;;;;1999.90;999.90;;;;;;;7.99;85.49;99153.34;5074665;28;20032;-74
2022/11/17 10:31:10;;;;;;;1999.90;999.90;;;;;;;7.97;84.46;99152.50;5085939;28;20119;-74
2022/11/17 10:33:38;;;;;;;1999.90;999.90;;;;;;;8.00;85.30;99145.44;5082954;28;20025;-74
2022/11/17 10:36:29;;;;;;;1999.90;999.90;;;;;;;7.99;84.63;99140.19;5082198;28;20036;-74
2022/11/17 10:38:56;;;;;;;1999.90;999.90;;;;;;;7.97;85.47;99134.13;5078456;28;20042;-74
2022/11/17 10:41:27;;;;;;;1999.90;999.90;;;;;;;7.96;85.26;99135.00;5080842;28;20097;-74
2022/11/17 10:44:01;;;;;;;1999.90;999.90;;;;;;;7.85;83.61;99132.56;5082749;28;20507;-74
2022/11/17 10:46:26;;;;;;;1999.90;999.90;;;;;;;7.67;84.24;99131.97;5083878;28;20032;-73
2022/11/17 10:49:00;;;;;;;1999.90;999.90;;;;;;;7.66;85.30;99122.38;5073614;28;20454;-74
2022/11/17 10:51:31;;;;;;;1999.90;999.90;;;;;;;7.72;86.39;99134.53;5078689;28;20039;-74
2022/11/17 10:54:26;;;;;;;1999.90;999.90;;;;;;;7.81;86.15;99130.91;5083681;28;20032;-74
2022/11/17 10:56:57;;;;;;;1999.90;999.90;;;;;;;7.81;86.30;99129.13;5054788;28;20055;-74
2022/11/17 10:59:31;;;;;;;1999.90;999.90;;;;;;;7.81;85.53;99131.75;5080339;28;20054;-74
2022/11/17 11:01:57;;;;;;;1999.90;999.90;;;;;;;7.77;85.84;99127.44;5083693;28;20410;-73
2022/11/17 11:04:40;;;;;;;1999.90;999.90;;;;;;;7.77;85.99;99126.59;5075945;28;20036;-74
2022/11/17 11:07:20;;;;;;;1999.90;999.90;;;;;;;7.79;85.90;99115.16;5078385;28;20050;-74
2022/11/17 11:09:55;;;;;;;1999.90;999.90;;;;;;;7.74;86.15;99119.63;5077460;28;20032;-75
2022/11/17 11:12:40;;;;;;;1999.90;999.90;;;;;;;7.73;86.27;99110.03;5065603;28;20579;-75
2022/11/17 11:15:13;;;;;;;1999.90;999.90;;;;;;;7.69;86.04;99106.56;5083135;28;20028;-74
2022/11/17 11:17:38;;;;;;;1999.90;999.90;;;;;;;7.73;86.70;99109.13;5077445;28;20038;-73
2022/11/17 11:20:11;;;;;;;1999.90;999.90;;;;;;;7.75;85.54;99108.22;5077466;28;20037;-74
2022/11/17 11:22:54;;;;;;;1999.90;999.90;;;;;;;7.68;86.17;99106.59;5078141;28;20602;-74
2022/11/17 11:25:25;;;;;;;1999.90;999.90;;;;;;;7.59;85.46;99104.97;5081111;28;20195;-74
2022/11/17 11:28:15;;;;;;;1999.90;999.90;;;;;;;7.63;87.01;99111.06;5077917;28;20123;-74
2022/11/17 11:31:10;;;;;;;1999.90;999.90;;;;;;;7.55;87.06;99105.09;5074532;28;20407;-74
2022/11/17 11:33:40;;;;;;;1999.90;999.90;;;;;;;7.53;87.98;99110.34;5074593;28;20040;-74